sensor_id;sensor_type;location;lat;lon;timestamp;P1;durP1;ratioP1;P2;durP2;ratioP2
28968;SDS011;16076;51.194;6.642;2022-08-19T00:00:22;11.40;;;9.70;;
28968;SDS011;16076;51.194;6.642;2022-08-19T00:02:50;14.02;;;9.65;;
28968;SDS011;16076;51.194;6.642;2022-08-19T00:05:16;10.80;;;9.45;;
28968;SDS011;16076;51.194;6.642;2022-08-19T00:07:47;15.40;;;9.40;;
28968;SDS011;16076;51.194;6.642;2022-08-19T00:10:14;12.38;;;9.70;;
28968;SDS011;16076;51.194;6.642;2022-08-19T00:12:42;15.95;;;10.80;;
28968;SDS011;16076;51.194;6.642;2022-08-19T00:15:09;12.93;;;10.70;;
28968;SDS011;16076;51.194;6.642;2022-08-19T00:17:41;11.45;;;9.35;;
28968;SDS011;16076;51.194;6.642;2022-08-19T00:22:37;13.88;;;10.20;;
28968;SDS011;16076;51.194;6.642;2022-08-19T00:25:05;13.35;;;9.60;;
28968;SDS011;16076;51.194;6.642;2022-08-19T00:27:31;11.98;;;10.13;;
28968;SDS011;16076;51.194;6.642;2022-08-19T00:29:57;14.10;;;10.82;;
28968;SDS011;16076;51.194;6.642;2022-08-19T00:32:24;14.25;;;11.45;;
28968;SDS011;16076;51.194;6.642;2022-08-19T00:34:51;13.15;;;10.40;;
28968;SDS011;16076;51.194;6.642;2022-08-19T00:37:17;13.18;;;10.18;;
28968;SDS011;16076;51.194;6.642;2022-08-19T00:39:48;17.23;;;12.23;;
28968;SDS011;16076;51.194;6.642;2022-08-19T00:42:16;16.52;;;12.48;;
28968;SDS011;16076;51.194;6.642;2022-08-19T00:44:42;15.00;;;12.02;;
28968;SDS011;16076;51.194;6.642;2022-08-19T00:47:08;16.90;;;12.98;;
28968;SDS011;16076;51.194;6.642;2022-08-19T00:49:36;15.38;;;13.00;;
28968;SDS011;16076;51.194;6.642;2022-08-19T00:52:07;16.88;;;12.65;;
28968;SDS011;16076;51.194;6.642;2022-08-19T00:54:39;14.43;;;12.02;;
28968;SDS011;16076;51.194;6.642;2022-08-19T00:57:07;13.68;;;11.63;;
28968;SDS011;16076;51.194;6.642;2022-08-19T00:59:42;14.25;;;11.55;;
28968;SDS011;16076;51.194;6.642;2022-08-19T01:02:12;12.90;;;10.68;;
28968;SDS011;16076;51.194;6.642;2022-08-19T01:04:38;12.55;;;11.02;;
28968;SDS011;16076;51.194;6.642;2022-08-19T01:07:06;13.50;;;10.90;;
28968;SDS011;16076;51.194;6.642;2022-08-19T01:09:33;16.73;;;12.50;;
28968;SDS011;16076;51.194;6.642;2022-08-19T01:12:01;18.08;;;11.38;;
28968;SDS011;16076;51.194;6.642;2022-08-19T01:14:30;14.10;;;11.27;;
28968;SDS011;16076;51.194;6.642;2022-08-19T01:16:56;17.13;;;12.77;;
28968;SDS011;16076;51.194;6.642;2022-08-19T01:19:27;15.23;;;10.40;;
28968;SDS011;16076;51.194;6.642;2022-08-19T01:22:05;12.18;;;9.27;;
28968;SDS011;16076;51.194;6.642;2022-08-19T01:24:38;16.98;;;13.68;;
28968;SDS011;16076;51.194;6.642;2022-08-19T01:27:06;18.58;;;12.48;;
28968;SDS011;16076;51.194;6.642;2022-08-19T01:29:36;16.92;;;13.15;;
28968;SDS011;16076;51.194;6.642;2022-08-19T01:32:04;14.55;;;11.90;;
28968;SDS011;16076;51.194;6.642;2022-08-19T01:34:33;15.02;;;12.32;;
28968;SDS011;16076;51.194;6.642;2022-08-19T01:36:59;15.52;;;12.65;;
28968;SDS011;16076;51.194;6.642;2022-08-19T01:39:30;13.27;;;11.00;;
28968;SDS011;16076;51.194;6.642;2022-08-19T01:41:55;15.35;;;11.30;;
28968;SDS011;16076;51.194;6.642;2022-08-19T01:44:24;12.57;;;10.55;;
28968;SDS011;16076;51.194;6.642;2022-08-19T01:46:50;15.07;;;11.68;;
28968;SDS011;16076;51.194;6.642;2022-08-19T01:49:18;14.38;;;11.40;;
28968;SDS011;16076;51.194;6.642;2022-08-19T01:51:46;14.63;;;11.60;;
28968;SDS011;16076;51.194;6.642;2022-08-19T01:54:13;14.65;;;10.82;;
28968;SDS011;16076;51.194;6.642;2022-08-19T01:56:40;14.60;;;11.57;;
28968;SDS011;16076;51.194;6.642;2022-08-19T01:59:10;16.23;;;12.27;;
28968;SDS011;16076;51.194;6.642;2022-08-19T02:01:40;14.60;;;11.20;;
28968;SDS011;16076;51.194;6.642;2022-08-19T02:04:15;15.82;;;11.25;;
28968;SDS011;16076;51.194;6.642;2022-08-19T02:06:41;15.40;;;11.43;;
28968;SDS011;16076;51.194;6.642;2022-08-19T02:09:07;14.25;;;11.50;;
28968;SDS011;16076;51.194;6.642;2022-08-19T02:11:34;15.30;;;11.50;;
28968;SDS011;16076;51.194;6.642;2022-08-19T02:14:02;13.70;;;11.65;;
28968;SDS011;16076;51.194;6.642;2022-08-19T02:16:30;16.20;;;13.63;;
28968;SDS011;16076;51.194;6.642;2022-08-19T02:18:57;16.35;;;14.02;;
28968;SDS011;16076;51.194;6.642;2022-08-19T02:21:28;20.73;;;15.82;;
28968;SDS011;16076;51.194;6.642;2022-08-19T02:23:57;22.35;;;15.57;;
28968;SDS011;16076;51.194;6.642;2022-08-19T02:26:23;24.08;;;16.25;;
28968;SDS011;16076;51.194;6.642;2022-08-19T02:28:51;18.67;;;15.65;;
28968;SDS011;16076;51.194;6.642;2022-08-19T02:31:19;22.13;;;17.55;;
28968;SDS011;16076;51.194;6.642;2022-08-19T02:33:47;24.77;;;18.35;;
28968;SDS011;16076;51.194;6.642;2022-08-19T02:36:17;22.50;;;17.50;;
28968;SDS011;16076;51.194;6.642;2022-08-19T02:38:43;23.48;;;17.23;;
28968;SDS011;16076;51.194;6.642;2022-08-19T02:41:28;20.67;;;14.90;;
28968;SDS011;16076;51.194;6.642;2022-08-19T02:43:56;26.30;;;17.20;;
28968;SDS011;16076;51.194;6.642;2022-08-19T02:46:25;23.83;;;16.48;;
28968;SDS011;16076;51.194;6.642;2022-08-19T02:51:31;25.65;;;17.02;;
28968;SDS011;16076;51.194;6.642;2022-08-19T02:53:58;22.80;;;17.75;;
28968;SDS011;16076;51.194;6.642;2022-08-19T02:56:25;19.40;;;14.98;;
28968;SDS011;16076;51.194;6.642;2022-08-19T02:58:53;17.85;;;15.20;;
28968;SDS011;16076;51.194;6.642;2022-08-19T03:01:31;18.98;;;14.73;;
28968;SDS011;16076;51.194;6.642;2022-08-19T03:03:59;28.35;;;18.17;;
28968;SDS011;16076;51.194;6.642;2022-08-19T03:06:26;24.77;;;18.33;;
28968;SDS011;16076;51.194;6.642;2022-08-19T03:08:53;23.35;;;18.58;;
28968;SDS011;16076;51.194;6.642;2022-08-19T03:13:51;22.77;;;17.42;;
28968;SDS011;16076;51.194;6.642;2022-08-19T03:16:23;23.77;;;17.23;;
28968;SDS011;16076;51.194;6.642;2022-08-19T03:18:50;21.92;;;16.35;;
28968;SDS011;16076;51.194;6.642;2022-08-19T03:21:18;29.33;;;18.38;;
28968;SDS011;16076;51.194;6.642;2022-08-19T03:23:50;26.33;;;19.10;;
28968;SDS011;16076;51.194;6.642;2022-08-19T03:26:18;39.40;;;21.98;;
28968;SDS011;16076;51.194;6.642;2022-08-19T03:28:45;26.73;;;19.85;;
28968;SDS011;16076;51.194;6.642;2022-08-19T03:31:17;27.35;;;20.25;;
28968;SDS011;16076;51.194;6.642;2022-08-19T03:33:46;28.52;;;20.80;;
28968;SDS011;16076;51.194;6.642;2022-08-19T03:36:13;28.73;;;20.65;;
28968;SDS011;16076;51.194;6.642;2022-08-19T03:38:47;27.17;;;19.80;;
28968;SDS011;16076;51.194;6.642;2022-08-19T03:41:19;33.30;;;21.38;;
28968;SDS011;16076;51.194;6.642;2022-08-19T03:43:49;27.92;;;20.33;;
28968;SDS011;16076;51.194;6.642;2022-08-19T03:46:18;28.75;;;21.02;;
28968;SDS011;16076;51.194;6.642;2022-08-19T03:48:46;31.52;;;23.50;;
28968;SDS011;16076;51.194;6.642;2022-08-19T03:51:17;32.60;;;22.98;;
28968;SDS011;16076;51.194;6.642;2022-08-19T03:53:45;33.28;;;22.77;;
28968;SDS011;16076;51.194;6.642;2022-08-19T03:56:11;33.17;;;23.65;;
28968;SDS011;16076;51.194;6.642;2022-08-19T03:58:38;30.00;;;22.40;;
28968;SDS011;16076;51.194;6.642;2022-08-19T04:01:12;30.02;;;22.33;;
28968;SDS011;16076;51.194;6.642;2022-08-19T04:03:43;30.48;;;22.67;;
28968;SDS011;16076;51.194;6.642;2022-08-19T04:06:12;34.30;;;22.77;;
28968;SDS011;16076;51.194;6.642;2022-08-19T04:08:40;33.78;;;23.90;;
28968;SDS011;16076;51.194;6.642;2022-08-19T04:11:07;32.22;;;23.52;;
28968;SDS011;16076;51.194;6.642;2022-08-19T04:13:37;34.17;;;24.07;;
28968;SDS011;16076;51.194;6.642;2022-08-19T04:16:03;36.42;;;23.80;;
28968;SDS011;16076;51.194;6.642;2022-08-19T04:21:33;39.95;;;27.42;;
28968;SDS011;16076;51.194;6.642;2022-08-19T04:27:21;41.10;;;27.75;;
28968;SDS011;16076;51.194;6.642;2022-08-19T04:33:17;45.72;;;29.65;;
28968;SDS011;16076;51.194;6.642;2022-08-19T04:35:45;46.88;;;30.35;;
28968;SDS011;16076;51.194;6.642;2022-08-19T04:38:13;49.47;;;32.00;;
28968;SDS011;16076;51.194;6.642;2022-08-19T04:40:43;46.45;;;30.95;;
28968;SDS011;16076;51.194;6.642;2022-08-19T04:43:29;42.70;;;29.02;;
28968;SDS011;16076;51.194;6.642;2022-08-19T04:45:59;49.55;;;27.73;;
28968;SDS011;16076;51.194;6.642;2022-08-19T04:48:30;41.53;;;27.20;;
28968;SDS011;16076;51.194;6.642;2022-08-19T04:50:57;47.35;;;28.63;;
28968;SDS011;16076;51.194;6.642;2022-08-19T04:53:26;42.30;;;28.30;;
28968;SDS011;16076;51.194;6.642;2022-08-19T04:56:04;46.80;;;29.55;;
28968;SDS011;16076;51.194;6.642;2022-08-19T04:58:33;49.17;;;31.10;;
28968;SDS011;16076;51.194;6.642;2022-08-19T05:01:00;54.15;;;33.67;;
28968;SDS011;16076;51.194;6.642;2022-08-19T05:03:26;55.80;;;34.47;;
28968;SDS011;16076;51.194;6.642;2022-08-19T05:05:52;51.95;;;32.88;;
28968;SDS011;16076;51.194;6.642;2022-08-19T05:08:19;50.55;;;32.08;;
28968;SDS011;16076;51.194;6.642;2022-08-19T05:10:47;57.15;;;36.25;;
28968;SDS011;16076;51.194;6.642;2022-08-19T05:13:17;58.08;;;37.05;;
28968;SDS011;16076;51.194;6.642;2022-08-19T05:15:44;55.22;;;35.58;;
28968;SDS011;16076;51.194;6.642;2022-08-19T05:18:21;60.78;;;38.50;;
28968;SDS011;16076;51.194;6.642;2022-08-19T05:21:09;56.25;;;37.08;;
28968;SDS011;16076;51.194;6.642;2022-08-19T05:23:58;65.15;;;39.40;;
28968;SDS011;16076;51.194;6.642;2022-08-19T05:26:24;67.40;;;39.92;;
28968;SDS011;16076;51.194;6.642;2022-08-19T05:28:51;59.90;;;37.88;;
28968;SDS011;16076;51.194;6.642;2022-08-19T05:31:20;64.30;;;39.50;;
28968;SDS011;16076;51.194;6.642;2022-08-19T05:33:46;67.22;;;40.25;;
28968;SDS011;16076;51.194;6.642;2022-08-19T05:36:13;67.43;;;41.33;;
28968;SDS011;16076;51.194;6.642;2022-08-19T05:38:39;65.47;;;40.58;;
28968;SDS011;16076;51.194;6.642;2022-08-19T05:41:11;68.68;;;41.90;;
28968;SDS011;16076;51.194;6.642;2022-08-19T05:43:41;64.57;;;39.83;;
28968;SDS011;16076;51.194;6.642;2022-08-19T05:46:07;67.78;;;40.70;;
28968;SDS011;16076;51.194;6.642;2022-08-19T05:48:34;62.00;;;38.45;;
28968;SDS011;16076;51.194;6.642;2022-08-19T05:51:03;74.82;;;42.53;;
28968;SDS011;16076;51.194;6.642;2022-08-19T05:53:33;77.90;;;44.03;;
28968;SDS011;16076;51.194;6.642;2022-08-19T05:56:05;74.57;;;44.77;;
28968;SDS011;16076;51.194;6.642;2022-08-19T05:58:31;65.57;;;40.30;;
28968;SDS011;16076;51.194;6.642;2022-08-19T06:00:58;67.18;;;41.17;;
28968;SDS011;16076;51.194;6.642;2022-08-19T06:03:29;64.93;;;40.45;;
28968;SDS011;16076;51.194;6.642;2022-08-19T06:05:57;71.07;;;42.60;;
28968;SDS011;16076;51.194;6.642;2022-08-19T06:08:24;71.13;;;43.88;;
28968;SDS011;16076;51.194;6.642;2022-08-19T06:10:51;73.68;;;45.58;;
28968;SDS011;16076;51.194;6.642;2022-08-19T06:13:17;74.75;;;45.75;;
28968;SDS011;16076;51.194;6.642;2022-08-19T06:15:44;65.18;;;41.83;;
28968;SDS011;16076;51.194;6.642;2022-08-19T06:18:13;65.15;;;38.47;;
28968;SDS011;16076;51.194;6.642;2022-08-19T06:20:40;74.82;;;44.92;;
28968;SDS011;16076;51.194;6.642;2022-08-19T06:23:08;69.72;;;43.85;;
28968;SDS011;16076;51.194;6.642;2022-08-19T06:25:35;62.38;;;40.30;;
28968;SDS011;16076;51.194;6.642;2022-08-19T06:28:06;69.90;;;41.38;;
28968;SDS011;16076;51.194;6.642;2022-08-19T06:30:32;64.00;;;38.92;;
28968;SDS011;16076;51.194;6.642;2022-08-19T06:32:57;70.88;;;42.00;;
28968;SDS011;16076;51.194;6.642;2022-08-19T06:35:23;67.60;;;40.72;;
28968;SDS011;16076;51.194;6.642;2022-08-19T06:37:50;61.17;;;38.92;;
28968;SDS011;16076;51.194;6.642;2022-08-19T06:40:17;64.20;;;40.00;;
28968;SDS011;16076;51.194;6.642;2022-08-19T06:42:43;59.95;;;38.08;;
28968;SDS011;16076;51.194;6.642;2022-08-19T06:45:09;54.55;;;35.38;;
28968;SDS011;16076;51.194;6.642;2022-08-19T06:47:35;62.67;;;37.80;;
28968;SDS011;16076;51.194;6.642;2022-08-19T06:50:02;54.20;;;34.67;;
28968;SDS011;16076;51.194;6.642;2022-08-19T06:52:30;49.65;;;32.47;;
28968;SDS011;16076;51.194;6.642;2022-08-19T06:54:59;52.88;;;31.92;;
28968;SDS011;16076;51.194;6.642;2022-08-19T06:57:26;55.28;;;33.63;;
28968;SDS011;16076;51.194;6.642;2022-08-19T06:59:52;50.15;;;30.45;;
28968;SDS011;16076;51.194;6.642;2022-08-19T07:02:18;44.65;;;29.38;;
28968;SDS011;16076;51.194;6.642;2022-08-19T07:04:48;41.00;;;27.73;;
28968;SDS011;16076;51.194;6.642;2022-08-19T07:07:19;45.45;;;30.30;;
28968;SDS011;16076;51.194;6.642;2022-08-19T07:09:48;48.72;;;30.48;;
28968;SDS011;16076;51.194;6.642;2022-08-19T07:12:15;32.97;;;23.52;;
28968;SDS011;16076;51.194;6.642;2022-08-19T07:14:41;40.05;;;24.30;;
28968;SDS011;16076;51.194;6.642;2022-08-19T07:17:08;35.45;;;24.45;;
28968;SDS011;16076;51.194;6.642;2022-08-19T07:19:36;36.55;;;25.38;;
28968;SDS011;16076;51.194;6.642;2022-08-19T07:22:04;43.92;;;28.75;;
28968;SDS011;16076;51.194;6.642;2022-08-19T07:24:31;42.05;;;29.17;;
28968;SDS011;16076;51.194;6.642;2022-08-19T07:26:59;50.53;;;30.50;;
28968;SDS011;16076;51.194;6.642;2022-08-19T07:29:31;49.70;;;31.95;;
28968;SDS011;16076;51.194;6.642;2022-08-19T07:31:58;41.83;;;27.83;;
28968;SDS011;16076;51.194;6.642;2022-08-19T07:34:29;47.55;;;29.60;;
28968;SDS011;16076;51.194;6.642;2022-08-19T07:36:56;46.53;;;30.73;;
28968;SDS011;16076;51.194;6.642;2022-08-19T07:39:28;52.97;;;33.47;;
28968;SDS011;16076;51.194;6.642;2022-08-19T07:44:25;50.63;;;31.58;;
28968;SDS011;16076;51.194;6.642;2022-08-19T07:46:52;56.10;;;33.90;;
28968;SDS011;16076;51.194;6.642;2022-08-19T07:49:21;53.85;;;33.28;;
28968;SDS011;16076;51.194;6.642;2022-08-19T07:51:49;63.28;;;38.63;;
28968;SDS011;16076;51.194;6.642;2022-08-19T07:54:27;58.47;;;36.65;;
28968;SDS011;16076;51.194;6.642;2022-08-19T07:56:54;61.47;;;37.50;;
28968;SDS011;16076;51.194;6.642;2022-08-19T07:59:23;77.75;;;37.92;;
28968;SDS011;16076;51.194;6.642;2022-08-19T08:01:49;62.72;;;37.72;;
28968;SDS011;16076;51.194;6.642;2022-08-19T08:04:16;57.70;;;36.08;;
28968;SDS011;16076;51.194;6.642;2022-08-19T08:07:01;58.38;;;34.55;;
28968;SDS011;16076;51.194;6.642;2022-08-19T08:09:46;55.38;;;35.38;;
28968;SDS011;16076;51.194;6.642;2022-08-19T08:12:16;53.65;;;34.45;;
28968;SDS011;16076;51.194;6.642;2022-08-19T08:14:50;56.83;;;36.35;;
28968;SDS011;16076;51.194;6.642;2022-08-19T08:17:20;55.78;;;35.60;;
28968;SDS011;16076;51.194;6.642;2022-08-19T08:19:49;54.65;;;34.20;;
28968;SDS011;16076;51.194;6.642;2022-08-19T08:22:19;51.55;;;32.28;;
28968;SDS011;16076;51.194;6.642;2022-08-19T08:25:05;52.13;;;31.02;;
28968;SDS011;16076;51.194;6.642;2022-08-19T08:27:40;48.33;;;31.88;;
28968;SDS011;16076;51.194;6.642;2022-08-19T08:30:13;52.25;;;31.77;;
28968;SDS011;16076;51.194;6.642;2022-08-19T08:32:44;49.47;;;31.52;;
28968;SDS011;16076;51.194;6.642;2022-08-19T08:35:12;42.72;;;26.45;;
28968;SDS011;16076;51.194;6.642;2022-08-19T08:37:39;47.83;;;29.73;;
28968;SDS011;16076;51.194;6.642;2022-08-19T08:40:06;43.47;;;28.70;;
28968;SDS011;16076;51.194;6.642;2022-08-19T08:42:45;41.17;;;27.40;;
28968;SDS011;16076;51.194;6.642;2022-08-19T08:45:19;40.20;;;26.00;;
28968;SDS011;16076;51.194;6.642;2022-08-19T08:47:50;40.13;;;27.15;;
28968;SDS011;16076;51.194;6.642;2022-08-19T08:50:20;40.25;;;26.10;;
28968;SDS011;16076;51.194;6.642;2022-08-19T08:52:51;36.08;;;23.20;;
28968;SDS011;16076;51.194;6.642;2022-08-19T08:58:01;27.75;;;17.90;;
28968;SDS011;16076;51.194;6.642;2022-08-19T09:00:37;32.05;;;16.95;;
28968;SDS011;16076;51.194;6.642;2022-08-19T09:03:24;23.55;;;16.90;;
28968;SDS011;16076;51.194;6.642;2022-08-19T09:06:00;28.55;;;18.75;;
28968;SDS011;16076;51.194;6.642;2022-08-19T09:16:52;25.65;;;17.17;;
28968;SDS011;16076;51.194;6.642;2022-08-19T09:19:17;30.05;;;19.10;;
28968;SDS011;16076;51.194;6.642;2022-08-19T09:21:43;26.85;;;17.92;;
28968;SDS011;16076;51.194;6.642;2022-08-19T09:24:10;26.38;;;16.80;;
28968;SDS011;16076;51.194;6.642;2022-08-19T09:26:38;22.02;;;16.67;;
28968;SDS011;16076;51.194;6.642;2022-08-19T09:29:04;23.40;;;13.27;;
28968;SDS011;16076;51.194;6.642;2022-08-19T09:31:31;24.42;;;14.13;;
28968;SDS011;16076;51.194;6.642;2022-08-19T09:33:59;23.80;;;14.48;;
28968;SDS011;16076;51.194;6.642;2022-08-19T09:36:26;21.33;;;15.13;;
28968;SDS011;16076;51.194;6.642;2022-08-19T09:38:55;20.27;;;13.20;;
28968;SDS011;16076;51.194;6.642;2022-08-19T09:41:23;21.08;;;14.82;;
28968;SDS011;16076;51.194;6.642;2022-08-19T09:43:53;23.33;;;14.57;;
28968;SDS011;16076;51.194;6.642;2022-08-19T09:46:23;22.10;;;15.43;;
28968;SDS011;16076;51.194;6.642;2022-08-19T09:48:54;22.20;;;14.65;;
28968;SDS011;16076;51.194;6.642;2022-08-19T09:51:26;16.83;;;12.32;;
28968;SDS011;16076;51.194;6.642;2022-08-19T09:53:54;19.63;;;11.87;;
28968;SDS011;16076;51.194;6.642;2022-08-19T09:56:23;21.00;;;12.82;;
28968;SDS011;16076;51.194;6.642;2022-08-19T09:58:49;17.50;;;12.23;;
28968;SDS011;16076;51.194;6.642;2022-08-19T10:01:20;17.30;;;12.18;;
28968;SDS011;16076;51.194;6.642;2022-08-19T10:03:50;15.45;;;11.07;;
28968;SDS011;16076;51.194;6.642;2022-08-19T10:06:19;20.13;;;12.77;;
28968;SDS011;16076;51.194;6.642;2022-08-19T10:08:46;19.25;;;11.32;;
28968;SDS011;16076;51.194;6.642;2022-08-19T10:11:12;22.02;;;12.20;;
28968;SDS011;16076;51.194;6.642;2022-08-19T10:13:43;15.73;;;11.60;;
28968;SDS011;16076;51.194;6.642;2022-08-19T10:16:12;13.90;;;10.02;;
28968;SDS011;16076;51.194;6.642;2022-08-19T10:18:44;16.08;;;10.70;;
28968;SDS011;16076;51.194;6.642;2022-08-19T10:21:23;16.50;;;10.40;;
28968;SDS011;16076;51.194;6.642;2022-08-19T10:23:59;15.82;;;9.32;;
28968;SDS011;16076;51.194;6.642;2022-08-19T10:26:39;15.48;;;11.40;;
28968;SDS011;16076;51.194;6.642;2022-08-19T10:29:12;16.85;;;11.77;;
28968;SDS011;16076;51.194;6.642;2022-08-19T10:31:41;16.45;;;10.63;;
28968;SDS011;16076;51.194;6.642;2022-08-19T10:34:09;13.55;;;10.00;;
28968;SDS011;16076;51.194;6.642;2022-08-19T10:36:36;16.17;;;10.35;;
28968;SDS011;16076;51.194;6.642;2022-08-19T10:39:04;18.25;;;10.63;;
28968;SDS011;16076;51.194;6.642;2022-08-19T10:41:33;17.30;;;11.82;;
28968;SDS011;16076;51.194;6.642;2022-08-19T10:44:07;17.52;;;11.23;;
28968;SDS011;16076;51.194;6.642;2022-08-19T10:49:05;16.38;;;10.20;;
28968;SDS011;16076;51.194;6.642;2022-08-19T10:51:31;16.58;;;12.63;;
28968;SDS011;16076;51.194;6.642;2022-08-19T10:54:16;15.07;;;11.40;;
28968;SDS011;16076;51.194;6.642;2022-08-19T10:56:42;13.95;;;10.45;;
28968;SDS011;16076;51.194;6.642;2022-08-19T10:59:18;16.55;;;12.57;;
28968;SDS011;16076;51.194;6.642;2022-08-19T11:01:47;13.38;;;9.93;;
28968;SDS011;16076;51.194;6.642;2022-08-19T11:04:13;17.23;;;10.00;;
28968;SDS011;16076;51.194;6.642;2022-08-19T11:06:42;16.67;;;11.63;;
28968;SDS011;16076;51.194;6.642;2022-08-19T11:09:16;16.52;;;10.50;;
28968;SDS011;16076;51.194;6.642;2022-08-19T11:11:44;12.98;;;9.30;;
28968;SDS011;16076;51.194;6.642;2022-08-19T11:14:10;12.77;;;9.32;;
28968;SDS011;16076;51.194;6.642;2022-08-19T11:16:38;13.32;;;9.73;;
28968;SDS011;16076;51.194;6.642;2022-08-19T11:19:06;11.38;;;8.38;;
28968;SDS011;16076;51.194;6.642;2022-08-19T11:21:34;12.70;;;7.53;;
28968;SDS011;16076;51.194;6.642;2022-08-19T11:24:07;18.60;;;8.48;;
28968;SDS011;16076;51.194;6.642;2022-08-19T11:26:37;11.88;;;8.68;;
28968;SDS011;16076;51.194;6.642;2022-08-19T11:29:05;8.85;;;6.72;;
28968;SDS011;16076;51.194;6.642;2022-08-19T11:31:36;15.63;;;8.07;;
28968;SDS011;16076;51.194;6.642;2022-08-19T11:34:05;16.45;;;9.23;;
28968;SDS011;16076;51.194;6.642;2022-08-19T11:36:33;17.80;;;9.77;;
28968;SDS011;16076;51.194;6.642;2022-08-19T11:39:04;13.35;;;9.27;;
28968;SDS011;16076;51.194;6.642;2022-08-19T11:41:31;16.05;;;8.15;;
28968;SDS011;16076;51.194;6.642;2022-08-19T11:43:58;11.05;;;7.70;;
28968;SDS011;16076;51.194;6.642;2022-08-19T11:46:24;16.25;;;8.73;;
28968;SDS011;16076;51.194;6.642;2022-08-19T11:48:57;10.80;;;6.67;;
28968;SDS011;16076;51.194;6.642;2022-08-19T11:51:25;9.07;;;6.03;;
28968;SDS011;16076;51.194;6.642;2022-08-19T11:53:53;10.88;;;7.72;;
28968;SDS011;16076;51.194;6.642;2022-08-19T11:56:20;9.70;;;6.38;;
28968;SDS011;16076;51.194;6.642;2022-08-19T11:58:47;11.18;;;7.88;;
28968;SDS011;16076;51.194;6.642;2022-08-19T12:01:19;17.35;;;7.70;;
28968;SDS011;16076;51.194;6.642;2022-08-19T12:03:49;11.75;;;8.20;;
28968;SDS011;16076;51.194;6.642;2022-08-19T12:06:18;13.07;;;7.10;;
28968;SDS011;16076;51.194;6.642;2022-08-19T12:08:53;9.82;;;6.80;;
28968;SDS011;16076;51.194;6.642;2022-08-19T12:11:33;12.95;;;6.20;;
28968;SDS011;16076;51.194;6.642;2022-08-19T12:13:59;10.02;;;5.60;;
28968;SDS011;16076;51.194;6.642;2022-08-19T12:16:25;8.70;;;5.40;;
28968;SDS011;16076;51.194;6.642;2022-08-19T12:18:54;7.85;;;5.63;;
28968;SDS011;16076;51.194;6.642;2022-08-19T12:21:21;9.35;;;4.25;;
28968;SDS011;16076;51.194;6.642;2022-08-19T12:23:54;8.27;;;5.10;;
28968;SDS011;16076;51.194;6.642;2022-08-19T12:26:24;8.65;;;5.65;;
28968;SDS011;16076;51.194;6.642;2022-08-19T12:28:52;8.50;;;4.68;;
28968;SDS011;16076;51.194;6.642;2022-08-19T12:31:18;7.70;;;6.07;;
28968;SDS011;16076;51.194;6.642;2022-08-19T12:33:44;9.60;;;5.50;;
28968;SDS011;16076;51.194;6.642;2022-08-19T12:36:14;7.97;;;4.60;;
28968;SDS011;16076;51.194;6.642;2022-08-19T12:38:40;13.23;;;5.82;;
28968;SDS011;16076;51.194;6.642;2022-08-19T12:41:08;11.38;;;5.05;;
28968;SDS011;16076;51.194;6.642;2022-08-19T12:43:36;8.05;;;4.80;;
28968;SDS011;16076;51.194;6.642;2022-08-19T12:46:06;7.03;;;4.97;;
28968;SDS011;16076;51.194;6.642;2022-08-19T12:48:34;8.20;;;4.68;;
28968;SDS011;16076;51.194;6.642;2022-08-19T12:51:05;26.15;;;4.95;;
28968;SDS011;16076;51.194;6.642;2022-08-19T12:53:32;7.20;;;4.32;;
28968;SDS011;16076;51.194;6.642;2022-08-19T12:55:58;7.78;;;4.75;;
28968;SDS011;16076;51.194;6.642;2022-08-19T12:58:26;7.38;;;5.10;;
28968;SDS011;16076;51.194;6.642;2022-08-19T13:00:53;7.22;;;4.45;;
28968;SDS011;16076;51.194;6.642;2022-08-19T13:03:19;10.80;;;4.00;;
28968;SDS011;16076;51.194;6.642;2022-08-19T13:05:54;6.57;;;3.92;;
28968;SDS011;16076;51.194;6.642;2022-08-19T13:08:20;6.93;;;3.42;;
28968;SDS011;16076;51.194;6.642;2022-08-19T13:10:46;6.22;;;3.25;;
28968;SDS011;16076;51.194;6.642;2022-08-19T13:13:11;5.53;;;3.50;;
28968;SDS011;16076;51.194;6.642;2022-08-19T13:15:38;6.85;;;3.80;;
28968;SDS011;16076;51.194;6.642;2022-08-19T13:18:10;5.85;;;3.28;;
28968;SDS011;16076;51.194;6.642;2022-08-19T13:20:37;5.88;;;3.33;;
28968;SDS011;16076;51.194;6.642;2022-08-19T13:23:05;5.53;;;3.60;;
28968;SDS011;16076;51.194;6.642;2022-08-19T13:25:32;5.90;;;3.28;;
28968;SDS011;16076;51.194;6.642;2022-08-19T13:27:58;6.55;;;3.17;;
28968;SDS011;16076;51.194;6.642;2022-08-19T13:30:27;6.75;;;3.67;;
28968;SDS011;16076;51.194;6.642;2022-08-19T13:33:11;4.72;;;3.00;;
28968;SDS011;16076;51.194;6.642;2022-08-19T13:35:51;4.57;;;3.10;;
28968;SDS011;16076;51.194;6.642;2022-08-19T13:38:22;4.70;;;2.97;;
28968;SDS011;16076;51.194;6.642;2022-08-19T13:40:49;5.88;;;3.30;;
28968;SDS011;16076;51.194;6.642;2022-08-19T13:43:17;5.40;;;3.28;;
28968;SDS011;16076;51.194;6.642;2022-08-19T13:45:49;5.63;;;2.90;;
28968;SDS011;16076;51.194;6.642;2022-08-19T13:48:18;3.67;;;2.28;;
28968;SDS011;16076;51.194;6.642;2022-08-19T13:50:44;3.92;;;2.42;;
28968;SDS011;16076;51.194;6.642;2022-08-19T13:53:12;5.97;;;2.28;;
28968;SDS011;16076;51.194;6.642;2022-08-19T13:55:41;5.82;;;2.42;;
28968;SDS011;16076;51.194;6.642;2022-08-19T13:58:08;4.30;;;2.25;;
28968;SDS011;16076;51.194;6.642;2022-08-19T14:00:39;6.15;;;2.35;;
28968;SDS011;16076;51.194;6.642;2022-08-19T14:03:06;5.55;;;2.20;;
28968;SDS011;16076;51.194;6.642;2022-08-19T14:05:32;8.82;;;2.35;;
28968;SDS011;16076;51.194;6.642;2022-08-19T14:07:59;3.55;;;2.10;;
28968;SDS011;16076;51.194;6.642;2022-08-19T14:10:26;4.68;;;1.80;;
28968;SDS011;16076;51.194;6.642;2022-08-19T14:12:53;4.10;;;2.05;;
28968;SDS011;16076;51.194;6.642;2022-08-19T14:15:21;22.20;;;2.35;;
28968;SDS011;16076;51.194;6.642;2022-08-19T14:17:48;3.67;;;1.60;;
28968;SDS011;16076;51.194;6.642;2022-08-19T14:20:14;4.00;;;1.90;;
28968;SDS011;16076;51.194;6.642;2022-08-19T14:22:41;4.22;;;2.00;;
28968;SDS011;16076;51.194;6.642;2022-08-19T14:25:10;6.78;;;1.88;;
28968;SDS011;16076;51.194;6.642;2022-08-19T14:27:39;4.47;;;1.73;;
28968;SDS011;16076;51.194;6.642;2022-08-19T14:30:08;6.85;;;2.20;;
28968;SDS011;16076;51.194;6.642;2022-08-19T14:32:36;5.22;;;2.38;;
28968;SDS011;16076;51.194;6.642;2022-08-19T14:35:02;5.20;;;2.10;;
28968;SDS011;16076;51.194;6.642;2022-08-19T14:37:30;3.53;;;1.77;;
28968;SDS011;16076;51.194;6.642;2022-08-19T14:39:55;5.78;;;1.77;;
28968;SDS011;16076;51.194;6.642;2022-08-19T14:42:21;5.30;;;2.10;;
28968;SDS011;16076;51.194;6.642;2022-08-19T14:44:47;4.07;;;2.10;;
28968;SDS011;16076;51.194;6.642;2022-08-19T14:47:13;5.47;;;2.00;;
28968;SDS011;16076;51.194;6.642;2022-08-19T14:49:39;10.48;;;2.20;;
28968;SDS011;16076;51.194;6.642;2022-08-19T14:52:04;3.42;;;1.73;;
28968;SDS011;16076;51.194;6.642;2022-08-19T14:54:32;10.35;;;2.05;;
28968;SDS011;16076;51.194;6.642;2022-08-19T14:56:58;7.72;;;2.30;;
28968;SDS011;16076;51.194;6.642;2022-08-19T14:59:24;7.20;;;2.78;;
28968;SDS011;16076;51.194;6.642;2022-08-19T15:01:50;4.65;;;2.10;;
28968;SDS011;16076;51.194;6.642;2022-08-19T15:04:18;5.28;;;2.67;;
28968;SDS011;16076;51.194;6.642;2022-08-19T15:06:44;5.53;;;2.70;;
28968;SDS011;16076;51.194;6.642;2022-08-19T15:09:11;4.20;;;2.45;;
28968;SDS011;16076;51.194;6.642;2022-08-19T15:11:39;6.32;;;3.00;;